createdAt,value
2023-03-10T00:01:15.590Z,50.07
2023-03-10T00:03:42.472Z,50.65
2023-03-10T00:06:11.839Z,50.85
2023-03-10T00:08:38.749Z,50.28
2023-03-10T00:11:05.588Z,49.98
2023-03-10T00:13:32.885Z,48.62
2023-03-10T00:15:59.815Z,48.16
2023-03-10T00:18:26.663Z,50.00
2023-03-10T00:20:54.269Z,49.86
2023-03-10T00:23:21.616Z,48.75
2023-03-10T00:25:59.800Z,49.61
2023-03-10T00:28:27.545Z,48.98
2023-03-10T00:30:58.566Z,49.24
2023-03-10T00:33:25.258Z,48.45
2023-03-10T00:36:11.321Z,48.03
2023-03-10T00:38:39.392Z,48.30
2023-03-10T00:41:12.806Z,48.38
2023-03-10T00:43:39.543Z,48.59
2023-03-10T00:46:06.433Z,47.09
2023-03-10T00:48:33.472Z,49.04
2023-03-10T00:51:00.392Z,49.76
2023-03-10T00:53:27.833Z,50.39
2023-03-10T00:56:06.009Z,50.31
2023-03-10T00:58:33.027Z,49.07
2023-03-10T01:01:01.403Z,50.85
2023-03-10T01:03:29.248Z,49.86
2023-03-10T01:05:57.230Z,49.52
2023-03-10T01:08:24.289Z,49.75
2023-03-10T01:10:50.981Z,49.07
2023-03-10T01:13:18.676Z,49.18
2023-03-10T01:15:47.846Z,49.96
2023-03-10T01:18:15.593Z,51.53
2023-03-10T01:20:42.273Z,50.55
2023-03-10T01:23:21.210Z,50.39
2023-03-10T01:25:50.084Z,50.53
2023-03-10T01:28:18.962Z,49.83
2023-03-10T01:30:46.326Z,48.99
2023-03-10T01:33:13.908Z,48.58
2023-03-10T01:35:41.330Z,49.21
2023-03-10T01:38:08.501Z,48.56
2023-03-10T01:40:37.381Z,48.76
2023-03-10T01:43:25.876Z,49.07
2023-03-10T01:45:52.408Z,48.76
2023-03-10T01:48:21.920Z,48.66
2023-03-10T01:50:53.173Z,48.86
2023-03-10T01:53:21.206Z,49.63
2023-03-10T01:55:52.688Z,50.58
2023-03-10T01:58:22.809Z,51.19
2023-03-10T02:00:53.282Z,52.96
2023-03-10T02:03:26.493Z,54.58
2023-03-10T02:05:59.804Z,54.50
2023-03-10T02:08:31.828Z,53.47
2023-03-10T02:11:00.383Z,52.02
2023-03-10T02:13:26.981Z,50.76
2023-03-10T02:15:53.800Z,54.65
2023-03-10T02:18:22.355Z,52.88
2023-03-10T02:21:02.515Z,54.12
2023-03-10T02:23:42.953Z,54.85
2023-03-10T02:26:30.168Z,55.01
2023-03-10T02:29:00.558Z,55.82
2023-03-10T02:31:29.708Z,56.63
2023-03-10T02:33:57.395Z,55.51
2023-03-10T02:36:24.719Z,56.24
2023-03-10T02:38:51.941Z,57.75
2023-03-10T02:41:24.959Z,58.22
2023-03-10T02:43:54.647Z,57.05
2023-03-10T02:46:26.522Z,56.21
2023-03-10T02:48:53.150Z,56.05
2023-03-10T02:51:31.012Z,57.73
2023-03-10T02:54:01.396Z,57.63
2023-03-10T02:56:29.604Z,57.87
2023-03-10T02:58:58.949Z,56.01
2023-03-10T03:01:26.538Z,54.89
2023-03-10T03:03:55.202Z,53.45
2023-03-10T03:06:22.310Z,53.42
2023-03-10T03:08:49.200Z,52.99
2023-03-10T03:11:18.197Z,52.39
2023-03-10T03:13:45.196Z,52.14
2023-03-10T03:16:12.066Z,50.24
2023-03-10T03:18:39.459Z,50.92
2023-03-10T03:21:12.941Z,55.30
2023-03-10T03:23:40.163Z,55.68
2023-03-10T03:26:14.673Z,55.73
2023-03-10T03:28:41.342Z,53.35
2023-03-10T03:31:14.699Z,53.68
2023-03-10T03:33:42.211Z,52.40
2023-03-10T03:36:09.608Z,51.47
2023-03-10T03:38:36.488Z,51.25
2023-03-10T03:41:03.152Z,50.70
2023-03-10T03:43:30.566Z,50.29
2023-03-10T03:45:59.409Z,53.66
2023-03-10T03:48:26.337Z,55.65
2023-03-10T03:50:53.025Z,56.98
2023-03-10T03:53:28.801Z,57.86
2023-03-10T03:55:55.600Z,56.56
2023-03-10T03:58:25.014Z,56.40
2023-03-10T04:00:52.113Z,55.00
2023-03-10T04:03:19.282Z,52.76
2023-03-10T04:05:46.993Z,52.50
2023-03-10T04:08:14.248Z,52.47
2023-03-10T04:10:41.103Z,51.63
2023-03-10T04:13:07.686Z,51.76
2023-03-10T04:15:35.451Z,51.95
2023-03-10T04:18:02.092Z,51.88
2023-03-10T04:20:29.318Z,51.96
2023-03-10T04:22:56.265Z,50.62
2023-03-10T04:25:28.553Z,51.54
2023-03-10T04:27:56.549Z,50.41
2023-03-10T04:30:28.858Z,50.25
2023-03-10T04:33:01.028Z,51.55
2023-03-10T04:35:30.110Z,53.59
2023-03-10T04:37:57.802Z,55.21
2023-03-10T04:40:25.596Z,55.42
2023-03-10T04:42:52.700Z,55.44
2023-03-10T04:45:19.593Z,52.92
2023-03-10T04:47:46.228Z,53.87
2023-03-10T04:50:17.303Z,53.06
2023-03-10T04:52:45.514Z,52.45
2023-03-10T04:55:13.133Z,50.87
2023-03-10T04:57:40.359Z,51.51
2023-03-10T05:00:09.137Z,51.01
2023-03-10T05:02:36.190Z,51.02
2023-03-10T05:05:04.305Z,51.39
2023-03-10T05:07:31.191Z,51.02
2023-03-10T05:09:58.468Z,50.59
2023-03-10T05:12:26.933Z,51.29
2023-03-10T05:14:53.498Z,50.79
2023-03-10T05:17:20.121Z,50.91
2023-03-10T05:19:47.510Z,49.65
2023-03-10T05:22:14.268Z,50.11
2023-03-10T05:24:40.900Z,50.26
2023-03-10T05:27:08.679Z,49.88
2023-03-10T05:29:38.790Z,50.26
2023-03-10T05:32:14.984Z,50.09
2023-03-10T05:34:42.780Z,49.71
2023-03-10T05:37:09.437Z,50.20
2023-03-10T05:39:36.047Z,49.83
2023-03-10T05:42:08.366Z,50.59
2023-03-10T05:44:36.815Z,50.45
2023-03-10T05:47:05.953Z,50.83
2023-03-10T05:49:32.617Z,50.26
2023-03-10T05:51:59.551Z,49.93
2023-03-10T05:54:26.274Z,48.65
2023-03-10T05:56:53.094Z,51.38
2023-03-10T05:59:22.547Z,51.29
2023-03-10T06:01:50.428Z,52.72
2023-03-10T06:04:17.299Z,53.19
2023-03-10T06:06:44.116Z,52.29
2023-03-10T06:09:10.738Z,51.94
2023-03-10T06:11:37.431Z,53.15
2023-03-10T06:14:04.382Z,51.70
2023-03-10T06:16:31.210Z,51.71
2023-03-10T06:18:58.137Z,51.17
2023-03-10T06:21:25.326Z,50.29
2023-03-10T06:23:52.426Z,49.66
2023-03-10T06:26:19.081Z,49.01
2023-03-10T06:28:46.770Z,50.36
2023-03-10T06:31:22.370Z,50.01
2023-03-10T06:33:49.309Z,49.48
2023-03-10T06:36:16.580Z,49.33
2023-03-10T06:38:43.517Z,50.98
2023-03-10T06:41:10.501Z,51.20
2023-03-10T06:43:37.564Z,51.42
2023-03-10T06:46:06.255Z,52.96
2023-03-10T06:48:33.223Z,52.73
2023-03-10T06:50:59.963Z,54.22
2023-03-10T06:53:27.249Z,54.13
2023-03-10T06:56:04.464Z,54.55
2023-03-10T06:58:33.192Z,54.69
2023-03-10T07:00:59.990Z,54.33
2023-03-10T07:03:28.978Z,51.82
2023-03-10T07:05:59.423Z,52.24
2023-03-10T07:08:27.193Z,52.52
2023-03-10T07:10:53.851Z,51.54
2023-03-10T07:13:21.956Z,50.33
2023-03-10T07:15:48.924Z,50.37
2023-03-10T07:18:16.214Z,50.52
2023-03-10T07:20:47.833Z,50.24
2023-03-10T07:23:15.181Z,48.64
2023-03-10T07:25:41.816Z,51.06
2023-03-10T07:28:08.561Z,49.58
2023-03-10T07:30:35.625Z,47.42
2023-03-10T07:33:02.350Z,49.32
2023-03-10T07:35:28.988Z,48.24
2023-03-10T07:37:55.819Z,50.26
2023-03-10T07:40:24.899Z,49.37
2023-03-10T07:42:54.481Z,50.57
2023-03-10T07:45:22.710Z,49.71
2023-03-10T07:47:54.088Z,48.58
2023-03-10T07:50:21.922Z,48.38
2023-03-10T07:52:48.707Z,48.61
2023-03-10T07:55:15.706Z,48.89
2023-03-10T07:57:42.482Z,49.08
2023-03-10T08:00:10.437Z,48.52
2023-03-10T08:02:40.937Z,48.95
2023-03-10T08:05:08.701Z,48.66
2023-03-10T08:07:35.759Z,48.08
2023-03-10T08:10:03.129Z,47.78
2023-03-10T08:12:29.771Z,48.07
2023-03-10T08:14:56.509Z,47.17
2023-03-10T08:17:24.644Z,46.69
2023-03-10T08:19:51.320Z,48.04
2023-03-10T08:22:18.094Z,44.01
2023-03-10T08:24:44.770Z,46.69
2023-03-10T08:27:11.559Z,44.69
2023-03-10T08:29:38.181Z,45.83
2023-03-10T08:32:05.038Z,43.70
2023-03-10T08:34:33.606Z,46.07
2023-03-10T08:37:00.961Z,45.04
2023-03-10T08:39:29.236Z,46.46
2023-03-10T08:41:56.225Z,47.42
2023-03-10T08:44:23.307Z,46.93
2023-03-10T08:46:50.754Z,47.45
2023-03-10T08:49:19.853Z,46.58
2023-03-10T08:51:47.081Z,47.31
2023-03-10T08:54:16.393Z,47.35
2023-03-10T08:56:43.219Z,46.18
2023-03-10T08:59:10.049Z,47.17
2023-03-10T09:01:38.300Z,46.86
2023-03-10T09:04:06.302Z,46.82
2023-03-10T09:06:33.317Z,43.04
2023-03-10T09:09:00.118Z,46.23
2023-03-10T09:11:31.504Z,45.87
2023-03-10T09:13:58.954Z,46.04
2023-03-10T09:16:26.759Z,46.30
2023-03-10T09:18:53.420Z,46.24
2023-03-10T09:21:20.581Z,45.37
2023-03-10T09:23:50.006Z,44.83
2023-03-10T09:26:16.664Z,46.70
2023-03-10T09:28:43.253Z,46.90
2023-03-10T09:31:16.154Z,45.98
2023-03-10T09:33:42.916Z,45.84
2023-03-10T09:36:09.713Z,45.37
2023-03-10T09:38:36.865Z,46.06
2023-03-10T09:41:28.658Z,44.38
2023-03-10T09:44:02.324Z,45.48
2023-03-10T09:46:40.963Z,44.21
2023-03-10T09:49:31.319Z,45.12
2023-03-10T09:51:59.076Z,46.07
2023-03-10T09:54:55.105Z,46.48
2023-03-10T09:57:23.619Z,45.91
2023-03-10T09:59:53.979Z,45.18
2023-03-10T10:02:26.152Z,45.93
2023-03-10T10:05:00.109Z,45.92
2023-03-10T10:07:36.222Z,44.68
2023-03-10T10:10:14.139Z,44.67
2023-03-10T10:12:42.448Z,45.69
2023-03-10T10:15:19.713Z,46.06
2023-03-10T10:18:12.168Z,45.04
2023-03-10T10:20:58.903Z,45.12
2023-03-10T10:23:33.632Z,46.11
2023-03-10T10:26:10.616Z,45.38
2023-03-10T10:28:55.592Z,45.50
2023-03-10T10:31:31.226Z,44.42
2023-03-10T10:34:19.695Z,45.21
2023-03-10T10:36:55.698Z,46.57
2023-03-10T10:39:28.158Z,46.45
2023-03-10T10:41:55.108Z,45.55
2023-03-10T10:44:21.715Z,45.64
2023-03-10T10:46:53.986Z,46.20
2023-03-10T10:49:26.164Z,45.26
2023-03-10T10:52:21.071Z,45.36
2023-03-10T10:54:58.746Z,45.81
2023-03-10T10:57:35.340Z,45.68
2023-03-10T11:00:31.883Z,45.25
2023-03-10T11:02:59.254Z,45.17
2023-03-10T11:05:37.578Z,44.12
2023-03-10T11:08:27.095Z,45.29
2023-03-10T11:10:59.995Z,43.64
2023-03-10T11:13:39.888Z,45.84
2023-03-10T11:16:47.199Z,44.53
2023-03-10T11:19:37.165Z,43.94
2023-03-10T11:22:15.054Z,43.74
2023-03-10T11:24:53.935Z,45.83
2023-03-10T11:27:35.996Z,45.97
2023-03-10T11:30:10.266Z,44.28
2023-03-10T11:33:06.285Z,43.81
2023-03-10T11:35:46.337Z,42.69
2023-03-10T11:38:34.878Z,43.09
2023-03-10T11:41:14.388Z,44.00
2023-03-10T11:44:07.130Z,43.42
2023-03-10T11:47:00.927Z,44.79
2023-03-10T11:49:35.515Z,43.46
2023-03-10T11:52:10.465Z,43.96
2023-03-10T11:54:46.123Z,44.36
2023-03-10T11:57:18.942Z,43.00
2023-03-10T12:00:05.674Z,44.06
2023-03-10T12:02:42.853Z,44.45
2023-03-10T12:05:21.398Z,44.56
2023-03-10T12:07:52.375Z,44.54
2023-03-10T12:10:21.979Z,41.66
2023-03-10T12:12:51.066Z,44.06
2023-03-10T12:15:17.637Z,45.05
2023-03-10T12:17:45.776Z,44.43
2023-03-10T12:20:15.982Z,43.55
2023-03-10T12:22:46.808Z,43.43
2023-03-10T12:25:28.975Z,45.99
2023-03-10T12:28:17.731Z,44.04
2023-03-10T12:30:44.496Z,44.33
2023-03-10T12:33:42.255Z,43.55
2023-03-10T12:36:32.659Z,46.07
2023-03-10T12:39:27.396Z,44.21
2023-03-10T12:41:55.876Z,42.70
2023-03-10T12:44:22.431Z,45.17
2023-03-10T12:46:53.906Z,44.96
2023-03-10T12:49:39.167Z,45.47
2023-03-10T12:52:45.150Z,44.75
2023-03-10T12:55:22.150Z,44.54
2023-03-10T12:58:18.190Z,45.41
2023-03-10T13:01:01.021Z,45.08
2023-03-10T13:03:35.746Z,45.51
2023-03-10T13:06:04.905Z,46.00
2023-03-10T13:08:34.854Z,45.58
2023-03-10T13:11:02.419Z,44.24
2023-03-10T13:13:33.425Z,45.24
2023-03-10T13:16:02.985Z,45.35
2023-03-10T13:18:30.578Z,45.49
2023-03-10T13:21:01.629Z,43.16
2023-03-10T13:23:36.908Z,44.69
2023-03-10T13:26:09.332Z,44.23
2023-03-10T13:28:36.453Z,43.93
2023-03-10T13:31:12.055Z,43.80
2023-03-10T13:33:52.363Z,43.81
2023-03-10T13:36:21.499Z,44.27
2023-03-10T13:38:48.095Z,43.69
2023-03-10T13:41:14.872Z,44.90
2023-03-10T13:43:43.117Z,43.54
2023-03-10T13:46:24.353Z,44.80
2023-03-10T13:48:51.975Z,43.92
2023-03-10T13:51:25.634Z,45.05
2023-03-10T13:53:55.119Z,44.11
2023-03-10T13:56:36.376Z,44.49
2023-03-10T13:59:04.054Z,43.72
2023-03-10T14:01:34.803Z,43.96
2023-03-10T14:04:06.836Z,45.31
2023-03-10T14:06:33.730Z,44.03
2023-03-10T14:09:21.129Z,42.68
2023-03-10T14:11:49.687Z,44.15
2023-03-10T14:14:38.420Z,44.05
2023-03-10T14:17:08.458Z,43.15
2023-03-10T14:19:44.094Z,44.65
2023-03-10T14:22:25.650Z,45.57
2023-03-10T14:24:52.381Z,43.32
2023-03-10T14:27:19.268Z,43.75
2023-03-10T14:29:51.096Z,43.01
2023-03-10T14:32:18.317Z,43.33
2023-03-10T14:34:45.525Z,44.57
2023-03-10T14:37:12.593Z,43.13
2023-03-10T14:39:39.172Z,43.68
2023-03-10T14:42:06.304Z,44.49
2023-03-10T14:44:33.639Z,43.20
2023-03-10T14:47:00.858Z,45.08
2023-03-10T14:49:28.053Z,44.18
2023-03-10T14:51:54.859Z,44.72
2023-03-10T14:54:25.941Z,44.22
2023-03-10T14:56:59.146Z,42.47
2023-03-10T14:59:27.988Z,43.10
2023-03-10T15:01:56.074Z,42.88
2023-03-10T15:04:22.903Z,43.87
2023-03-10T15:06:49.882Z,44.93
2023-03-10T15:09:17.029Z,45.03
2023-03-10T15:11:43.738Z,44.69
2023-03-10T15:14:17.651Z,43.69
2023-03-10T15:16:44.673Z,43.60
2023-03-10T15:19:26.212Z,42.82
2023-03-10T15:21:53.458Z,43.66
2023-03-10T15:24:20.181Z,42.50
2023-03-10T15:26:48.379Z,43.26
2023-03-10T15:29:17.368Z,42.87
2023-03-10T15:31:44.082Z,43.79
2023-03-10T15:34:10.776Z,44.29
2023-03-10T15:36:37.943Z,42.56
2023-03-10T15:39:05.249Z,44.22
2023-03-10T15:41:37.261Z,43.88
2023-03-10T15:44:04.669Z,42.56
2023-03-10T15:46:33.182Z,43.97
2023-03-10T15:49:02.342Z,45.29
2023-03-10T15:51:29.234Z,44.25
2023-03-10T15:53:55.992Z,44.57
2023-03-10T15:56:23.312Z,41.92
2023-03-10T15:58:50.201Z,43.05
2023-03-10T16:01:19.807Z,44.56
2023-03-10T16:03:47.300Z,44.52
2023-03-10T16:06:15.783Z,43.49
2023-03-10T16:08:42.992Z,44.84
2023-03-10T16:11:20.242Z,44.83
2023-03-10T16:13:49.425Z,45.24
2023-03-10T16:16:23.252Z,46.28
2023-03-10T16:18:50.138Z,45.87
2023-03-10T16:21:18.026Z,45.53
2023-03-10T16:23:45.326Z,45.62
2023-03-10T16:26:20.312Z,45.19
2023-03-10T16:28:50.649Z,43.49
2023-03-10T16:31:19.987Z,45.93
2023-03-10T16:33:47.795Z,46.16
2023-03-10T16:36:18.539Z,46.78
2023-03-10T16:38:45.852Z,47.73
2023-03-10T16:41:13.216Z,47.43
2023-03-10T16:43:40.446Z,47.76
2023-03-10T16:46:17.316Z,47.19
2023-03-10T16:48:46.400Z,47.57
2023-03-10T16:51:38.298Z,47.61
2023-03-10T16:54:08.130Z,47.62
2023-03-10T16:56:40.867Z,47.72
2023-03-10T16:59:07.956Z,48.23
2023-03-10T17:01:34.868Z,47.27
2023-03-10T17:04:01.797Z,47.85
2023-03-10T17:06:31.565Z,48.55
2023-03-10T17:08:59.534Z,47.91
2023-03-10T17:11:29.103Z,47.98
2023-03-10T17:13:58.718Z,48.62
2023-03-10T17:16:30.566Z,49.00
2023-03-10T17:19:00.298Z,48.81
2023-03-10T17:21:32.707Z,48.39
2023-03-10T17:24:00.899Z,48.99
2023-03-10T17:26:27.890Z,49.31
2023-03-10T17:28:55.065Z,48.69
2023-03-10T17:31:27.934Z,49.61
2023-03-10T17:34:00.537Z,49.34
2023-03-10T17:36:28.029Z,49.51
2023-03-10T17:38:57.622Z,50.13
2023-03-10T17:41:25.181Z,49.59
2023-03-10T17:43:53.654Z,49.75
2023-03-10T17:46:26.053Z,50.27
2023-03-10T17:48:56.628Z,50.91
2023-03-10T17:51:26.097Z,51.35
2023-03-10T17:53:53.949Z,51.22
2023-03-10T17:56:22.083Z,51.49
2023-03-10T17:58:49.609Z,51.33
2023-03-10T18:01:29.003Z,51.17
2023-03-10T18:03:56.705Z,50.47
2023-03-10T18:06:26.452Z,51.45
2023-03-10T18:08:55.617Z,51.57
2023-03-10T18:11:23.701Z,51.91
2023-03-10T18:13:50.298Z,51.74
2023-03-10T18:16:19.836Z,51.28
2023-03-10T18:18:46.966Z,51.06
2023-03-10T18:21:15.664Z,50.87
2023-03-10T18:23:42.442Z,51.65
2023-03-10T18:26:10.978Z,52.55
2023-03-10T18:28:38.390Z,52.46
2023-03-10T18:31:09.943Z,52.25
2023-03-10T18:33:37.578Z,51.98
2023-03-10T18:36:07.536Z,50.80
2023-03-10T18:38:34.298Z,51.50
2023-03-10T18:41:02.679Z,51.89
2023-03-10T18:43:32.032Z,51.15
2023-03-10T18:45:58.638Z,51.12
2023-03-10T18:48:28.288Z,51.04
2023-03-10T18:50:56.981Z,51.23
2023-03-10T18:53:24.921Z,51.91
2023-03-10T18:55:52.614Z,52.03
2023-03-10T18:58:19.443Z,52.30
2023-03-10T19:00:46.297Z,51.26
2023-03-10T19:03:16.278Z,51.86
2023-03-10T19:05:44.098Z,52.34
2023-03-10T19:08:11.166Z,51.67
2023-03-10T19:10:39.623Z,52.44
2023-03-10T19:13:07.679Z,52.71
2023-03-10T19:15:36.576Z,51.91
2023-03-10T19:18:06.841Z,52.22
2023-03-10T19:20:33.562Z,51.92
2023-03-10T19:23:00.219Z,52.41
2023-03-10T19:25:26.782Z,51.33
2023-03-10T19:27:53.402Z,51.88
2023-03-10T19:30:20.784Z,51.31
2023-03-10T19:32:50.841Z,50.52
2023-03-10T19:35:20.495Z,50.37
2023-03-10T19:37:50.370Z,51.40
2023-03-10T19:40:19.644Z,51.74
2023-03-10T19:42:47.099Z,50.58
2023-03-10T19:45:24.778Z,52.02
2023-03-10T19:47:52.406Z,51.67
2023-03-10T19:50:19.365Z,49.94
2023-03-10T19:52:50.076Z,50.90
2023-03-10T19:55:19.926Z,48.76
2023-03-10T19:57:48.608Z,49.54
2023-03-10T20:00:19.131Z,52.53
2023-03-10T20:02:46.251Z,51.30
2023-03-10T20:05:16.446Z,52.56
2023-03-10T20:07:46.984Z,50.86
2023-03-10T20:10:16.884Z,52.18
2023-03-10T20:12:51.224Z,51.79
2023-03-10T20:15:18.152Z,52.01
2023-03-10T20:17:44.826Z,51.86
2023-03-10T20:20:15.036Z,50.65
2023-03-10T20:22:45.317Z,48.50
2023-03-10T20:25:14.114Z,50.68
2023-03-10T20:27:40.792Z,50.24
2023-03-10T20:30:17.910Z,50.52
2023-03-10T20:32:45.092Z,51.08
2023-03-10T20:35:14.425Z,50.92
2023-03-10T20:37:42.027Z,50.61
2023-03-10T20:40:12.511Z,49.37
2023-03-10T20:42:42.595Z,49.20
2023-03-10T20:45:10.218Z,48.93
2023-03-10T20:47:37.594Z,49.29
2023-03-10T20:50:07.078Z,51.03
2023-03-10T20:52:35.607Z,50.29
2023-03-10T20:55:03.361Z,50.77
2023-03-10T20:57:31.333Z,51.40
2023-03-10T20:59:58.310Z,50.35
2023-03-10T21:02:25.244Z,51.29
2023-03-10T21:04:51.888Z,49.85
2023-03-10T21:07:18.696Z,50.10
2023-03-10T21:09:45.392Z,49.46
2023-03-10T21:12:13.654Z,47.72
2023-03-10T21:14:40.357Z,50.06
2023-03-10T21:17:07.523Z,48.98
2023-03-10T21:19:34.166Z,50.23
2023-03-10T21:22:03.278Z,50.37
2023-03-10T21:24:30.386Z,50.61
2023-03-10T21:26:57.010Z,50.32
2023-03-10T21:29:23.588Z,49.85
2023-03-10T21:31:50.472Z,49.70
2023-03-10T21:34:17.868Z,50.39
2023-03-10T21:36:49.009Z,48.89
2023-03-10T21:39:16.092Z,49.86
2023-03-10T21:41:42.932Z,50.46
2023-03-10T21:44:10.748Z,50.83
2023-03-10T21:46:37.405Z,51.09
2023-03-10T21:49:04.068Z,50.40
2023-03-10T21:51:33.893Z,50.62
2023-03-10T21:54:01.661Z,50.45
2023-03-10T21:56:29.010Z,50.26
2023-03-10T21:58:57.163Z,51.27
2023-03-10T22:01:25.153Z,49.21
2023-03-10T22:03:52.156Z,49.24
2023-03-10T22:06:19.020Z,50.24
2023-03-10T22:08:45.857Z,49.96
2023-03-10T22:11:13.201Z,47.93
2023-03-10T22:13:40.590Z,49.33
2023-03-10T22:16:10.619Z,49.19
2023-03-10T22:18:37.717Z,49.46
2023-03-10T22:21:04.661Z,49.46
2023-03-10T22:23:31.400Z,49.00
2023-03-10T22:25:58.152Z,49.58
2023-03-10T22:28:24.876Z,50.64
2023-03-10T22:30:51.805Z,49.28
2023-03-10T22:33:18.834Z,50.09
2023-03-10T22:35:51.564Z,49.98
2023-03-10T22:38:22.426Z,49.82
2023-03-10T22:40:49.318Z,50.45
2023-03-10T22:43:16.141Z,49.40
2023-03-10T22:45:42.940Z,50.96
2023-03-10T22:48:09.589Z,50.30
2023-03-10T22:50:39.134Z,52.22
2023-03-10T22:53:09.367Z,51.70
2023-03-10T22:55:36.560Z,50.46
2023-03-10T22:58:05.656Z,51.55
2023-03-10T23:00:38.145Z,50.86
2023-03-10T23:03:07.482Z,50.64
2023-03-10T23:05:34.430Z,49.48
2023-03-10T23:08:01.341Z,50.62
2023-03-10T23:10:31.132Z,50.64
2023-03-10T23:13:12.226Z,51.00
2023-03-10T23:15:39.253Z,49.63
2023-03-10T23:18:07.193Z,50.52
2023-03-10T23:20:37.151Z,51.08
2023-03-10T23:23:05.371Z,50.46
2023-03-10T23:25:38.127Z,51.37
2023-03-10T23:28:07.512Z,50.92
2023-03-10T23:30:36.209Z,51.13
2023-03-10T23:33:03.232Z,50.63
2023-03-10T23:35:32.483Z,51.14
2023-03-10T23:38:01.135Z,50.43
2023-03-10T23:40:29.596Z,49.44
2023-03-10T23:42:58.809Z,49.30
2023-03-10T23:45:27.637Z,49.86
2023-03-10T23:47:55.844Z,49.89
2023-03-10T23:50:24.100Z,50.32
2023-03-10T23:52:50.900Z,50.34
2023-03-10T23:55:23.467Z,50.67
2023-03-10T23:57:50.523Z,51.30
